createdAt,value
2023-02-17T00:01:36.178Z,37.00
2023-02-17T00:04:04.897Z,37.50
2023-02-17T00:06:32.826Z,26.80
2023-02-17T00:09:01.923Z,28.90
2023-02-17T00:11:30.447Z,25.00
2023-02-17T00:14:00.485Z,26.30
2023-02-17T00:16:29.615Z,26.40
2023-02-17T00:19:01.718Z,27.30
2023-02-17T00:21:32.401Z,23.90
2023-02-17T00:24:01.019Z,28.80
2023-02-17T00:26:29.735Z,39.80
2023-02-17T00:28:59.864Z,39.20
2023-02-17T00:31:27.909Z,30.30
2023-02-17T00:33:56.586Z,27.80
2023-02-17T00:36:27.745Z,30.80
2023-02-17T00:38:58.302Z,33.10
2023-02-17T00:41:28.882Z,35.60
2023-02-17T00:43:57.472Z,29.50
2023-02-17T00:46:27.288Z,29.60
2023-02-17T00:48:55.181Z,33.50
2023-02-17T00:51:25.872Z,35.10
2023-02-17T00:53:53.638Z,26.80
2023-02-17T00:56:21.356Z,29.90
2023-02-17T00:58:50.269Z,30.20
2023-02-17T01:01:18.448Z,30.80
2023-02-17T01:03:46.212Z,26.10
2023-02-17T01:06:31.381Z,31.10
2023-02-17T01:09:01.505Z,28.60
2023-02-17T01:11:33.357Z,31.20
2023-02-17T01:14:06.252Z,30.30
2023-02-17T01:16:47.555Z,31.80
2023-02-17T01:19:19.277Z,21.20
2023-02-17T01:21:47.127Z,21.30
2023-02-17T01:24:14.958Z,17.30
2023-02-17T01:26:43.228Z,17.30
2023-02-17T01:29:11.675Z,18.70
2023-02-17T01:31:40.722Z,22.20
2023-02-17T01:34:08.405Z,16.90
2023-02-17T01:36:36.230Z,14.10
2023-02-17T01:39:04.329Z,14.10
2023-02-17T01:41:32.472Z,15.20
2023-02-17T01:44:24.569Z,19.80
2023-02-17T01:46:56.118Z,15.60
2023-02-17T01:49:39.363Z,22.30
2023-02-17T01:52:21.004Z,19.10
2023-02-17T01:55:02.636Z,19.20
2023-02-17T01:57:35.676Z,22.20
2023-02-17T02:00:08.922Z,24.60
2023-02-17T02:02:37.903Z,19.60
2023-02-17T02:05:06.197Z,21.90
2023-02-17T02:07:40.712Z,22.50
2023-02-17T02:10:12.523Z,20.30
2023-02-17T02:12:42.754Z,15.00
2023-02-17T02:15:26.550Z,15.90
2023-02-17T02:21:10.127Z,17.60
2023-02-17T02:23:54.053Z,16.60
2023-02-17T02:27:13.106Z,15.80
2023-02-17T02:30:10.904Z,16.40
2023-02-17T02:33:14.272Z,19.20
2023-02-17T02:36:11.857Z,15.60
2023-02-17T02:39:10.334Z,21.90
2023-02-17T02:41:44.732Z,17.70
2023-02-17T02:44:18.022Z,21.00
2023-02-17T02:47:05.965Z,16.70
2023-02-17T02:49:37.556Z,13.20
2023-02-17T02:52:27.204Z,18.00
2023-02-17T02:55:09.267Z,24.40
2023-02-17T02:57:59.429Z,13.80
2023-02-17T03:00:46.915Z,15.90
2023-02-17T03:04:07.297Z,15.80
2023-02-17T03:07:03.879Z,16.90
2023-02-17T03:09:34.167Z,11.20
2023-02-17T03:12:03.282Z,14.60
2023-02-17T03:14:37.476Z,15.40
2023-02-17T03:19:33.326Z,14.40
2023-02-17T03:22:23.631Z,16.60
2023-02-17T03:24:52.112Z,14.80
2023-02-17T03:27:19.827Z,17.00
2023-02-17T03:29:48.317Z,13.40
2023-02-17T03:32:16.323Z,16.70
2023-02-17T03:34:44.029Z,18.80
2023-02-17T03:37:12.031Z,16.70
2023-02-17T03:39:41.173Z,20.10
2023-02-17T03:42:09.097Z,13.00
2023-02-17T03:44:37.266Z,13.20
2023-02-17T03:47:07.414Z,13.80
2023-02-17T03:49:35.762Z,15.80
2023-02-17T03:52:04.053Z,11.30
2023-02-17T03:54:31.999Z,11.20
2023-02-17T03:57:02.907Z,13.70
2023-02-17T03:59:30.926Z,14.20
2023-02-17T04:02:01.109Z,11.40
2023-02-17T04:04:31.462Z,14.00
2023-02-17T04:06:59.269Z,15.20
2023-02-17T04:09:27.112Z,12.10
2023-02-17T04:11:57.278Z,12.70
2023-02-17T04:14:25.029Z,12.70
2023-02-17T04:16:53.185Z,12.50
2023-02-17T04:19:21.411Z,13.30
2023-02-17T04:21:53.240Z,14.80
2023-02-17T04:24:23.694Z,14.60
2023-02-17T04:26:51.677Z,14.10
2023-02-17T04:29:19.432Z,15.60
2023-02-17T04:31:47.272Z,19.10
2023-02-17T04:34:15.565Z,16.70
2023-02-17T04:36:44.355Z,14.40
2023-02-17T04:39:12.618Z,14.00
2023-02-17T04:41:41.520Z,13.50
2023-02-17T04:44:09.545Z,13.90
2023-02-17T04:46:38.753Z,17.50
2023-02-17T04:49:06.723Z,17.70
2023-02-17T04:51:34.974Z,24.80
2023-02-17T04:54:02.723Z,14.90
2023-02-17T04:56:30.500Z,15.90
2023-02-17T04:58:58.281Z,15.60
2023-02-17T05:01:28.439Z,17.10
2023-02-17T05:03:56.215Z,14.30
2023-02-17T05:06:24.635Z,12.20
2023-02-17T05:08:54.228Z,17.70
2023-02-17T05:11:22.152Z,17.50
2023-02-17T05:13:51.270Z,17.00
2023-02-17T05:16:20.259Z,16.00
2023-02-17T05:18:48.136Z,16.90
2023-02-17T05:21:16.165Z,13.40
2023-02-17T05:23:46.688Z,15.20
2023-02-17T05:26:14.497Z,15.90
2023-02-17T05:28:42.321Z,14.90
2023-02-17T05:31:11.864Z,14.70
2023-02-17T05:33:42.654Z,15.90
2023-02-17T05:36:12.817Z,15.40
2023-02-17T05:38:41.218Z,18.40
2023-02-17T05:41:08.963Z,18.70
2023-02-17T05:43:46.657Z,18.40
2023-02-17T05:46:15.489Z,16.90
2023-02-17T05:48:45.354Z,20.10
2023-02-17T05:51:20.044Z,18.30
2023-02-17T05:53:48.178Z,13.20
2023-02-17T05:56:15.965Z,14.40
2023-02-17T05:58:45.273Z,15.70
2023-02-17T06:01:14.307Z,21.90
2023-02-17T06:03:42.380Z,20.20
2023-02-17T06:06:10.216Z,20.20
2023-02-17T06:08:40.710Z,18.30
2023-02-17T06:11:08.701Z,15.70
2023-02-17T06:13:37.409Z,13.40
2023-02-17T06:16:06.519Z,16.20
2023-02-17T06:18:39.738Z,18.30
2023-02-17T06:21:07.725Z,11.90
2023-02-17T06:23:35.450Z,16.90
2023-02-17T06:26:03.603Z,15.50
2023-02-17T06:28:33.650Z,22.20
2023-02-17T06:31:03.188Z,12.50
2023-02-17T06:33:31.177Z,16.10
2023-02-17T06:35:58.956Z,19.40
2023-02-17T06:38:26.893Z,17.70
2023-02-17T06:40:55.101Z,14.80
2023-02-17T06:43:23.476Z,13.80
2023-02-17T06:45:53.386Z,17.70
2023-02-17T06:48:23.648Z,16.40
2023-02-17T06:50:51.426Z,11.40
2023-02-17T06:53:19.401Z,14.60
2023-02-17T06:55:47.091Z,17.60
2023-02-17T06:58:14.928Z,17.70
2023-02-17T07:00:43.032Z,14.30
2023-02-17T07:03:11.262Z,12.30
2023-02-17T07:05:40.607Z,15.60
2023-02-17T07:08:08.520Z,15.30
2023-02-17T07:10:38.385Z,16.00
2023-02-17T07:13:06.360Z,13.10
2023-02-17T07:15:35.365Z,13.50
2023-02-17T07:18:03.406Z,8.80
2023-02-17T07:20:32.253Z,12.90
2023-02-17T07:23:01.933Z,8.50
2023-02-17T07:25:31.182Z,8.40
2023-02-17T07:28:00.286Z,5.90
2023-02-17T07:30:28.049Z,7.90
2023-02-17T07:32:55.929Z,4.70
2023-02-17T07:35:25.042Z,7.20
2023-02-17T07:37:52.766Z,14.40
2023-02-17T07:40:20.611Z,5.00
2023-02-17T07:42:48.828Z,6.90
2023-02-17T07:45:16.776Z,3.00
2023-02-17T07:47:45.013Z,2.90
2023-02-17T07:50:12.906Z,5.00
2023-02-17T07:52:40.748Z,3.60
2023-02-17T07:55:08.475Z,2.70
2023-02-17T07:57:40.009Z,2.20
2023-02-17T08:00:11.080Z,1.90
2023-02-17T08:02:39.644Z,1.40
2023-02-17T08:05:07.983Z,4.50
2023-02-17T08:07:35.779Z,2.00
2023-02-17T08:10:22.917Z,1.40
2023-02-17T08:13:11.770Z,1.20
2023-02-17T08:15:40.069Z,1.20
2023-02-17T08:18:07.988Z,2.00
2023-02-17T08:20:35.784Z,2.90
2023-02-17T08:23:03.775Z,1.50
2023-02-17T08:25:35.047Z,2.90
2023-02-17T08:28:05.940Z,1.40
2023-02-17T08:30:36.849Z,2.00
2023-02-17T08:33:07.155Z,3.60
2023-02-17T08:35:35.125Z,3.50
2023-02-17T08:38:03.051Z,3.80
2023-02-17T08:40:30.912Z,4.20
2023-02-17T08:42:58.637Z,3.70
2023-02-17T08:45:26.907Z,2.00
2023-02-17T08:47:54.767Z,4.70
2023-02-17T08:50:24.016Z,1.70
2023-02-17T08:52:52.251Z,2.80
2023-02-17T08:55:22.934Z,10.90
2023-02-17T08:57:51.771Z,3.70
2023-02-17T09:00:20.526Z,3.90
2023-02-17T09:02:48.785Z,1.20
2023-02-17T09:05:16.878Z,1.10
2023-02-17T09:07:46.364Z,3.60
2023-02-17T09:10:14.932Z,4.70
2023-02-17T09:12:42.772Z,2.00
2023-02-17T09:15:10.728Z,1.50
2023-02-17T09:17:40.867Z,2.10
2023-02-17T09:20:23.847Z,0.80
2023-02-17T09:25:20.504Z,1.00
2023-02-17T09:27:48.378Z,2.70
2023-02-17T09:30:16.651Z,0.80
2023-02-17T09:32:44.659Z,0.80
2023-02-17T09:35:17.636Z,1.40
2023-02-17T09:37:45.790Z,1.00
2023-02-17T09:40:40.187Z,0.90
2023-02-17T09:43:15.891Z,0.50
2023-02-17T09:45:51.243Z,0.60
2023-02-17T09:48:25.731Z,1.40
2023-02-17T09:51:14.228Z,0.60
2023-02-17T09:53:53.910Z,0.40
2023-02-17T09:56:35.196Z,0.60
2023-02-17T09:59:15.513Z,0.50
2023-02-17T10:01:46.728Z,1.10
2023-02-17T10:04:26.886Z,0.60
2023-02-17T10:07:14.934Z,0.90
2023-02-17T10:09:55.680Z,0.90
2023-02-17T10:12:38.853Z,0.90
2023-02-17T10:15:19.526Z,0.80
2023-02-17T10:18:35.984Z,2.90
2023-02-17T10:21:24.033Z,1.20
2023-02-17T10:23:52.751Z,5.30
2023-02-17T10:26:53.599Z,2.40
2023-02-17T10:29:42.261Z,2.00
2023-02-17T10:32:27.251Z,1.90
2023-02-17T10:35:37.893Z,3.60
2023-02-17T10:38:37.889Z,0.90
2023-02-17T10:41:10.012Z,2.50
2023-02-17T10:43:37.710Z,3.00
2023-02-17T10:46:09.441Z,1.00
2023-02-17T10:48:47.393Z,0.80
2023-02-17T10:51:22.550Z,0.50
2023-02-17T10:54:23.015Z,0.90
2023-02-17T10:56:56.610Z,0.50
2023-02-17T10:59:33.755Z,0.60
2023-02-17T11:02:33.700Z,2.30
2023-02-17T11:05:02.392Z,0.80
2023-02-17T11:07:42.262Z,0.80
2023-02-17T11:10:29.037Z,1.30
2023-02-17T11:12:58.856Z,1.50
2023-02-17T11:15:34.832Z,1.40
2023-02-17T11:18:18.406Z,0.60
2023-02-17T11:20:47.814Z,0.50
2023-02-17T11:23:15.674Z,0.50
2023-02-17T11:25:56.925Z,1.20
2023-02-17T11:28:26.604Z,0.70
2023-02-17T11:31:01.004Z,0.60
2023-02-17T11:33:36.470Z,2.20
2023-02-17T11:36:10.688Z,0.60
2023-02-17T11:41:09.072Z,1.20
2023-02-17T11:43:39.275Z,0.40
2023-02-17T11:46:28.546Z,0.30
2023-02-17T11:49:09.706Z,0.60
2023-02-17T11:52:00.413Z,0.50
2023-02-17T11:54:49.510Z,0.70
2023-02-17T11:57:45.307Z,0.60
2023-02-17T12:00:26.816Z,0.90
2023-02-17T12:03:27.152Z,1.10
2023-02-17T12:06:11.490Z,1.30
2023-02-17T12:08:55.021Z,1.20
2023-02-17T12:11:33.510Z,5.00
2023-02-17T12:14:22.542Z,1.30
2023-02-17T12:17:13.874Z,0.80
2023-02-17T12:20:11.110Z,0.90
2023-02-17T12:23:10.194Z,0.70
2023-02-17T12:26:03.390Z,0.70
2023-02-17T12:29:01.876Z,0.70
2023-02-17T12:32:05.390Z,0.80
2023-02-17T12:34:44.816Z,1.40
2023-02-17T12:37:26.314Z,1.00
2023-02-17T12:40:06.247Z,0.60
2023-02-17T12:42:43.962Z,0.60
2023-02-17T12:45:22.093Z,0.50
2023-02-17T12:48:14.872Z,0.70
2023-02-17T12:51:06.231Z,0.80
2023-02-17T12:53:48.634Z,1.00
2023-02-17T12:56:25.397Z,1.10
2023-02-17T12:58:58.912Z,0.60
2023-02-17T13:01:33.055Z,0.60
2023-02-17T13:04:02.355Z,0.90
2023-02-17T13:06:41.751Z,0.80
2023-02-17T13:09:26.538Z,0.90
2023-02-17T13:11:54.612Z,0.70
2023-02-17T13:14:38.368Z,1.40
2023-02-17T13:17:06.834Z,1.20
2023-02-17T13:19:35.812Z,0.80
2023-02-17T13:22:05.692Z,1.40
2023-02-17T13:24:51.509Z,0.90
2023-02-17T13:27:35.072Z,0.80
2023-02-17T13:30:40.100Z,0.70
2023-02-17T13:33:30.431Z,1.10
2023-02-17T13:35:58.682Z,3.00
2023-02-17T13:38:33.003Z,2.00
2023-02-17T13:41:07.177Z,3.10
2023-02-17T13:46:21.348Z,1.30
2023-02-17T13:49:05.513Z,2.80
2023-02-17T13:51:34.337Z,1.60
2023-02-17T13:54:09.320Z,2.90
2023-02-17T13:56:37.188Z,1.70
2023-02-17T13:59:18.448Z,2.40
2023-02-17T14:01:47.603Z,1.00
2023-02-17T14:04:30.480Z,0.60
2023-02-17T14:07:01.412Z,0.60
2023-02-17T14:09:33.556Z,1.20
2023-02-17T14:12:07.405Z,0.50
2023-02-17T14:14:39.449Z,0.80
2023-02-17T14:17:32.782Z,1.20
2023-02-17T14:20:00.998Z,0.60
2023-02-17T14:22:35.096Z,0.60
2023-02-17T14:27:53.833Z,0.90
2023-02-17T14:30:38.902Z,0.50
2023-02-17T14:33:16.397Z,7.30
2023-02-17T14:35:54.495Z,11.10
2023-02-17T14:38:43.303Z,2.70
2023-02-17T14:41:11.456Z,1.10
2023-02-17T14:43:43.048Z,2.00
2023-02-17T14:46:11.032Z,1.20
2023-02-17T14:48:39.216Z,2.10
2023-02-17T14:51:16.432Z,3.00
2023-02-17T14:53:46.232Z,3.20
2023-02-17T14:56:26.230Z,4.60
2023-02-17T14:58:54.458Z,7.80
2023-02-17T15:01:24.708Z,5.90
2023-02-17T15:03:53.883Z,3.80
2023-02-17T15:06:36.114Z,1.40
2023-02-17T15:09:03.923Z,1.40
2023-02-17T15:11:37.047Z,1.40
2023-02-17T15:14:06.330Z,2.00
2023-02-17T15:16:34.178Z,0.50
2023-02-17T15:19:02.280Z,0.50
2023-02-17T15:21:34.361Z,0.60
2023-02-17T15:24:12.547Z,0.40
2023-02-17T15:26:40.472Z,0.40
2023-02-17T15:29:20.542Z,0.50
2023-02-17T15:31:51.260Z,0.60
2023-02-17T15:34:23.592Z,0.40
2023-02-17T15:36:52.433Z,0.80
2023-02-17T15:39:22.582Z,0.90
2023-02-17T15:41:54.714Z,1.30
2023-02-17T15:44:43.276Z,1.70
2023-02-17T15:47:19.143Z,0.50
2023-02-17T15:49:47.817Z,0.60
2023-02-17T15:52:18.371Z,3.60
2023-02-17T15:54:48.383Z,0.60
2023-02-17T15:57:26.816Z,0.70
2023-02-17T15:59:55.577Z,1.10
2023-02-17T16:02:25.852Z,0.70
2023-02-17T16:04:53.866Z,0.60
2023-02-17T16:07:21.730Z,0.60
2023-02-17T16:09:49.412Z,0.60
2023-02-17T16:12:27.413Z,1.00
2023-02-17T16:14:57.610Z,0.80
2023-02-17T16:17:26.498Z,1.30
2023-02-17T16:19:54.527Z,0.60
2023-02-17T16:22:22.340Z,0.50
2023-02-17T16:24:50.171Z,0.50
2023-02-17T16:27:18.089Z,0.60
2023-02-17T16:29:45.972Z,0.60
2023-02-17T16:32:14.122Z,0.90
2023-02-17T16:34:43.476Z,1.10
2023-02-17T16:37:17.825Z,0.50
2023-02-17T16:39:47.069Z,3.10
2023-02-17T16:42:15.716Z,0.40
2023-02-17T16:44:46.406Z,0.30
2023-02-17T16:47:22.640Z,0.60
2023-02-17T16:49:50.801Z,0.60
2023-02-17T16:52:27.711Z,2.40
2023-02-17T16:54:55.982Z,0.80
2023-02-17T16:57:27.405Z,0.60
2023-02-17T16:59:56.397Z,1.30
2023-02-17T17:02:25.566Z,1.30
2023-02-17T17:04:53.650Z,0.80
2023-02-17T17:07:21.385Z,0.60
2023-02-17T17:10:14.335Z,1.20
2023-02-17T17:12:36.920Z,0.70
2023-02-17T17:15:05.214Z,0.80
2023-02-17T17:17:41.193Z,1.00
2023-02-17T17:20:17.185Z,1.00
2023-02-17T17:22:46.825Z,1.70
2023-02-17T17:25:14.968Z,1.50
2023-02-17T17:27:43.785Z,1.60
2023-02-17T17:30:20.400Z,1.20
2023-02-17T17:32:48.709Z,2.00
2023-02-17T17:35:17.228Z,1.20
2023-02-17T17:37:45.465Z,5.10
2023-02-17T17:40:22.966Z,2.70
2023-02-17T17:42:51.412Z,0.60
2023-02-17T17:45:19.853Z,0.40
2023-02-17T17:47:47.587Z,0.50
2023-02-17T17:50:23.889Z,1.20
2023-02-17T17:52:52.462Z,0.60
2023-02-17T17:55:20.672Z,0.40
2023-02-17T17:57:48.844Z,0.50
2023-02-17T18:00:18.787Z,0.50
2023-02-17T18:02:46.556Z,1.80
2023-02-17T18:05:14.487Z,0.60
2023-02-17T18:07:46.847Z,1.20
2023-02-17T18:10:17.216Z,0.50
2023-02-17T18:12:47.301Z,1.30
2023-02-17T18:15:17.382Z,1.10
2023-02-17T18:17:47.833Z,0.50
2023-02-17T18:20:16.444Z,0.60
2023-02-17T18:22:46.816Z,0.40
2023-02-17T18:25:14.592Z,0.50
2023-02-17T18:27:46.136Z,0.90
2023-02-17T18:30:19.785Z,0.80
2023-02-17T18:32:47.973Z,0.80
2023-02-17T18:35:19.505Z,0.60
2023-02-17T18:37:48.022Z,2.50
2023-02-17T18:40:20.227Z,1.10
2023-02-17T18:42:50.291Z,0.60
2023-02-17T18:45:22.507Z,2.80
2023-02-17T18:47:50.618Z,0.80
2023-02-17T18:50:19.233Z,1.60
2023-02-17T18:52:46.987Z,0.60
2023-02-17T18:55:15.198Z,0.60
2023-02-17T18:57:44.896Z,0.70
2023-02-17T19:00:16.849Z,0.80
2023-02-17T19:02:44.689Z,0.80
2023-02-17T19:05:13.634Z,1.00
2023-02-17T19:07:41.381Z,1.20
2023-02-17T19:10:10.647Z,0.60
2023-02-17T19:12:38.936Z,0.70
2023-02-17T19:15:07.681Z,0.60
2023-02-17T19:17:35.914Z,1.00
2023-02-17T19:20:04.278Z,0.70
2023-02-17T19:22:36.711Z,0.60
2023-02-17T19:25:05.230Z,2.10
2023-02-17T19:27:32.962Z,2.80
2023-02-17T19:30:00.769Z,1.10
2023-02-17T19:32:28.736Z,0.70
2023-02-17T19:34:56.585Z,1.10
2023-02-17T19:37:24.347Z,2.00
2023-02-17T19:39:52.376Z,4.40
2023-02-17T19:42:20.484Z,2.50
2023-02-17T19:44:49.182Z,2.40
2023-02-17T19:47:16.993Z,3.80
2023-02-17T19:49:45.049Z,1.80
2023-02-17T19:52:12.812Z,2.60
2023-02-17T19:54:40.650Z,3.40
2023-02-17T19:57:08.627Z,6.20
2023-02-17T19:59:37.152Z,2.30
2023-02-17T20:02:05.682Z,2.10
2023-02-17T20:04:33.518Z,1.20
2023-02-17T20:07:01.251Z,1.30
2023-02-17T20:09:29.497Z,0.60
2023-02-17T20:11:58.292Z,1.50
2023-02-17T20:14:26.580Z,1.20
2023-02-17T20:16:55.726Z,1.90
2023-02-17T20:19:23.771Z,1.10
2023-02-17T20:21:52.162Z,1.60
2023-02-17T20:24:20.160Z,2.50
2023-02-17T20:26:51.334Z,2.40
2023-02-17T20:29:21.757Z,2.00
2023-02-17T20:31:50.215Z,1.40
2023-02-17T20:34:40.718Z,1.20
2023-02-17T20:37:09.740Z,2.10
2023-02-17T20:39:39.151Z,2.90
2023-02-17T20:42:09.101Z,3.80
2023-02-17T20:44:36.990Z,0.90
2023-02-17T20:47:04.897Z,2.90
2023-02-17T20:49:32.723Z,1.80
2023-02-17T20:52:00.514Z,1.20
2023-02-17T20:54:28.386Z,0.70
2023-02-17T20:56:58.021Z,0.50
2023-02-17T20:59:26.470Z,1.20
2023-02-17T21:01:54.535Z,1.70
2023-02-17T21:04:24.265Z,0.60
2023-02-17T21:06:52.216Z,0.50
2023-02-17T21:09:20.419Z,0.60
2023-02-17T21:11:48.984Z,0.40
2023-02-17T21:14:16.868Z,0.60
2023-02-17T21:16:46.477Z,0.40
2023-02-17T21:19:14.880Z,0.40
2023-02-17T21:21:42.725Z,0.70
2023-02-17T21:24:13.701Z,0.50
2023-02-17T21:26:41.716Z,0.50
2023-02-17T21:29:10.397Z,0.40
2023-02-17T21:31:38.335Z,0.70
2023-02-17T21:34:08.707Z,0.70
2023-02-17T21:36:36.758Z,0.40
2023-02-17T21:39:05.671Z,1.00
2023-02-17T21:41:33.872Z,0.60
2023-02-17T21:44:20.825Z,0.60
2023-02-17T21:46:48.803Z,2.50
2023-02-17T21:49:17.532Z,0.50
2023-02-17T21:51:45.448Z,0.50
2023-02-17T21:54:13.421Z,0.40
2023-02-17T21:56:41.525Z,0.50
2023-02-17T21:59:09.444Z,0.50
2023-02-17T22:01:38.429Z,0.50
2023-02-17T22:04:07.195Z,0.70
2023-02-17T22:06:40.907Z,0.60
2023-02-17T22:09:12.385Z,0.80
2023-02-17T22:11:43.281Z,0.30
2023-02-17T22:14:20.508Z,0.60
2023-02-17T22:16:48.910Z,0.70
2023-02-17T22:19:21.646Z,1.80
2023-02-17T22:21:51.608Z,1.30
2023-02-17T22:24:21.601Z,2.90
2023-02-17T22:26:50.148Z,1.20
2023-02-17T22:29:18.892Z,0.90
2023-02-17T22:31:47.899Z,0.90
2023-02-17T22:34:17.357Z,0.80
2023-02-17T22:36:45.274Z,0.80
2023-02-17T22:39:13.057Z,0.70
2023-02-17T22:41:40.912Z,0.70
2023-02-17T22:44:08.714Z,1.00
2023-02-17T22:46:36.667Z,0.40
2023-02-17T22:49:04.723Z,0.50
2023-02-17T22:51:38.958Z,0.60
2023-02-17T22:54:08.280Z,0.40
2023-02-17T22:56:37.294Z,0.30
2023-02-17T22:59:06.227Z,0.30
2023-02-17T23:01:37.163Z,0.60
2023-02-17T23:04:06.454Z,1.00
2023-02-17T23:06:37.947Z,0.30
2023-02-17T23:09:18.999Z,0.50
2023-02-17T23:11:50.296Z,0.40
2023-02-17T23:14:26.009Z,0.50
2023-02-17T23:17:02.588Z,0.50
2023-02-17T23:19:35.766Z,0.40
2023-02-17T23:22:14.350Z,2.00
2023-02-17T23:24:48.859Z,2.00
2023-02-17T23:27:17.697Z,1.70
2023-02-17T23:29:45.567Z,3.50
2023-02-17T23:32:13.771Z,0.80
2023-02-17T23:34:41.772Z,0.40
2023-02-17T23:37:09.561Z,1.00
2023-02-17T23:39:38.280Z,1.30
2023-02-17T23:42:06.633Z,0.50
2023-02-17T23:44:34.389Z,0.30
2023-02-17T23:47:03.080Z,0.90
2023-02-17T23:49:30.889Z,1.80
2023-02-17T23:51:58.720Z,1.00
2023-02-17T23:54:27.193Z,0.40
2023-02-17T23:56:55.192Z,0.40
2023-02-17T23:59:22.922Z,0.60
